createdAt,value
2023-05-05T00:01:35.051Z,12.80
2023-05-05T00:05:17.041Z,12.80
2023-05-05T00:08:58.938Z,12.90
2023-05-05T00:12:41.484Z,12.80
2023-05-05T00:16:23.515Z,12.80
2023-05-05T00:20:06.579Z,12.80
2023-05-05T00:23:48.905Z,12.80
2023-05-05T00:27:30.805Z,12.80
2023-05-05T00:31:12.700Z,12.80
2023-05-05T00:34:54.743Z,12.80
2023-05-05T00:38:36.630Z,12.90
2023-05-05T00:42:19.215Z,12.80
2023-05-05T00:46:04.495Z,12.80
2023-05-05T00:49:46.477Z,12.80
2023-05-05T00:53:28.611Z,12.90
2023-05-05T00:57:11.130Z,12.90
2023-05-05T01:00:52.982Z,12.90
2023-05-05T01:04:34.882Z,12.80
2023-05-05T01:08:35.094Z,12.80
2023-05-05T01:12:25.319Z,12.60
2023-05-05T01:16:25.236Z,12.60
2023-05-05T01:20:36.233Z,12.50
2023-05-05T01:24:36.946Z,12.40
2023-05-05T01:28:43.835Z,12.30
2023-05-05T01:32:32.033Z,12.30
2023-05-05T01:36:22.979Z,12.20
2023-05-05T01:40:08.433Z,12.30
2023-05-05T01:43:52.496Z,12.30
2023-05-05T01:47:36.069Z,12.30
2023-05-05T01:51:19.262Z,12.20
2023-05-05T01:55:02.607Z,12.20
2023-05-05T01:58:46.659Z,12.20
2023-05-05T02:02:30.479Z,12.30
2023-05-05T02:06:13.862Z,12.40
2023-05-05T02:09:56.741Z,12.40
2023-05-05T02:13:39.482Z,12.40
2023-05-05T02:17:23.110Z,12.50
2023-05-05T02:21:06.152Z,12.50
2023-05-05T02:24:48.034Z,12.50
2023-05-05T02:28:46.794Z,12.50
2023-05-05T02:32:37.654Z,12.40
2023-05-05T02:36:27.935Z,12.30
2023-05-05T02:40:11.308Z,12.20
2023-05-05T02:43:55.449Z,12.20
2023-05-05T02:47:38.882Z,12.30
2023-05-05T02:51:20.951Z,12.30
2023-05-05T02:55:04.380Z,12.20
2023-05-05T02:58:53.122Z,12.20
2023-05-05T03:02:47.295Z,12.20
2023-05-05T03:06:30.235Z,12.20
2023-05-05T03:10:21.821Z,12.20
2023-05-05T03:14:17.119Z,12.20
2023-05-05T03:18:00.543Z,12.20
2023-05-05T03:21:43.024Z,12.20
2023-05-05T03:25:42.613Z,12.30
2023-05-05T03:29:25.458Z,12.30
2023-05-05T03:33:08.761Z,12.30
2023-05-05T03:36:50.747Z,12.30
2023-05-05T03:40:43.732Z,12.40
2023-05-05T03:44:26.359Z,12.30
2023-05-05T03:48:09.785Z,12.30
2023-05-05T03:51:52.002Z,12.30
2023-05-05T03:55:33.851Z,12.30
2023-05-05T03:59:16.067Z,12.30
2023-05-05T04:02:58.155Z,12.30
2023-05-05T04:06:40.127Z,12.30
2023-05-05T04:10:22.155Z,12.30
2023-05-05T04:14:04.028Z,12.30
2023-05-05T04:17:45.932Z,12.40
2023-05-05T04:21:27.945Z,12.40
2023-05-05T04:25:10.211Z,12.40
2023-05-05T04:28:52.415Z,12.40
2023-05-05T04:32:34.321Z,12.30
2023-05-05T04:36:16.346Z,12.30
2023-05-05T04:39:58.267Z,12.30
2023-05-05T04:43:40.249Z,12.30
2023-05-05T04:47:22.141Z,12.30
2023-05-05T04:51:07.683Z,12.30
2023-05-05T04:54:49.586Z,12.30
2023-05-05T04:58:31.548Z,12.30
2023-05-05T05:02:13.643Z,12.30
2023-05-05T05:05:55.702Z,12.30
2023-05-05T05:09:37.906Z,12.30
2023-05-05T05:13:19.944Z,12.30
2023-05-05T05:17:01.848Z,12.40
2023-05-05T05:20:43.902Z,12.40
2023-05-05T05:24:25.782Z,12.40
2023-05-05T05:28:10.550Z,12.40
2023-05-05T05:31:53.107Z,12.50
2023-05-05T05:39:31.356Z,12.60
2023-05-05T05:43:13.316Z,12.60
2023-05-05T05:47:07.647Z,12.70
2023-05-05T05:50:49.597Z,12.70
2023-05-05T05:54:34.424Z,12.80
2023-05-05T05:58:22.431Z,12.80
2023-05-05T06:02:04.634Z,12.80
2023-05-05T06:05:46.798Z,12.80
2023-05-05T06:09:42.169Z,12.80
2023-05-05T06:13:28.166Z,12.80
2023-05-05T06:17:10.071Z,12.80
2023-05-05T06:20:55.285Z,12.90
2023-05-05T06:24:51.999Z,12.90
2023-05-05T06:28:46.386Z,13.00
2023-05-05T06:32:35.759Z,13.00
2023-05-05T06:36:18.122Z,13.10
2023-05-05T06:40:03.239Z,13.20
2023-05-05T06:43:52.459Z,13.30
2023-05-05T06:47:34.542Z,13.40
2023-05-05T06:51:22.800Z,13.60
2023-05-05T07:07:47.564Z,15.40
2023-05-05T07:12:04.920Z,15.90
2023-05-05T07:15:47.509Z,16.10
2023-05-05T07:28:06.783Z,16.30
2023-05-05T07:32:20.138Z,16.20
2023-05-05T07:36:02.110Z,16.20
2023-05-05T07:40:29.506Z,16.20
2023-05-05T07:44:56.637Z,16.40
2023-05-05T07:53:53.774Z,16.80
2023-05-05T07:58:21.449Z,16.60
2023-05-05T08:02:49.109Z,16.40
2023-05-05T08:10:41.877Z,16.40
2023-05-05T08:18:37.593Z,16.50
2023-05-05T08:27:35.357Z,17.10
2023-05-05T08:35:25.634Z,17.50
2023-05-05T08:39:07.951Z,17.40
2023-05-05T08:43:23.854Z,17.20
2023-05-05T09:00:14.571Z,18.90
2023-05-05T09:08:13.738Z,18.90
2023-05-05T09:16:13.107Z,18.80
2023-05-05T09:20:29.173Z,18.70
2023-05-05T09:24:12.491Z,18.50
2023-05-05T09:28:21.336Z,18.50
2023-05-05T09:36:21.398Z,19.50
2023-05-05T09:48:55.856Z,23.00
2023-05-05T10:05:54.799Z,20.90
2023-05-05T10:13:43.141Z,23.60
2023-05-05T10:28:10.106Z,26.10
2023-05-05T11:04:22.596Z,25.00
2023-05-05T11:13:23.721Z,21.50
2023-05-05T11:17:44.611Z,21.20
2023-05-05T11:22:14.614Z,21.10
2023-05-05T11:50:30.309Z,21.20
2023-05-05T12:04:02.469Z,21.20
2023-05-05T12:12:50.012Z,20.70
2023-05-05T12:16:32.109Z,20.60
2023-05-05T12:20:44.318Z,20.50
2023-05-05T12:24:26.855Z,20.40
2023-05-05T12:37:41.318Z,20.80
2023-05-05T12:45:44.668Z,20.90
2023-05-05T12:54:40.370Z,21.00
2023-05-05T12:59:11.837Z,21.00
2023-05-05T13:03:41.819Z,20.90
2023-05-05T13:12:40.237Z,21.20
2023-05-05T13:26:23.218Z,21.00
2023-05-05T13:35:16.072Z,21.00
2023-05-05T13:44:24.924Z,21.00
2023-05-05T13:48:54.667Z,21.10
2023-05-05T14:12:30.052Z,20.10
2023-05-05T14:16:50.191Z,20.00
2023-05-05T14:46:19.119Z,20.70
2023-05-05T14:50:35.110Z,20.70
2023-05-05T14:58:24.784Z,20.50
2023-05-05T15:15:23.726Z,20.30
2023-05-05T15:33:35.280Z,19.50
2023-05-05T15:42:29.916Z,19.00
2023-05-05T15:46:50.868Z,18.70
2023-05-05T15:50:35.746Z,18.50
2023-05-05T15:58:23.683Z,18.30
2023-05-05T16:02:44.276Z,18.30
2023-05-05T16:15:06.743Z,18.60
2023-05-05T16:19:49.400Z,18.80
2023-05-05T16:24:17.332Z,18.90
2023-05-05T16:33:03.678Z,18.80
2023-05-05T16:36:45.956Z,18.70
2023-05-05T16:41:02.400Z,18.60
2023-05-05T16:54:37.858Z,18.00
2023-05-05T17:03:31.535Z,18.00
2023-05-05T17:11:28.095Z,18.20
2023-05-05T17:20:20.208Z,18.00
2023-05-05T17:24:02.351Z,17.80
2023-05-05T17:40:37.069Z,17.20
2023-05-05T17:44:19.002Z,17.00
2023-05-05T17:52:06.671Z,16.60
2023-05-05T17:56:24.100Z,16.50
2023-05-05T18:00:07.832Z,16.40
2023-05-05T18:07:54.349Z,16.10
2023-05-05T18:12:13.219Z,15.90
2023-05-05T18:29:24.652Z,15.50
2023-05-05T18:33:42.283Z,15.40
2023-05-05T19:03:08.075Z,14.70
2023-05-05T19:11:02.231Z,14.50
2023-05-05T19:18:52.367Z,14.40
2023-05-05T19:23:04.575Z,14.20
2023-05-05T19:26:46.914Z,14.10
2023-05-05T19:34:33.317Z,13.90
2023-05-05T19:38:50.123Z,13.90
2023-05-05T19:42:32.113Z,13.90
2023-05-05T19:46:14.692Z,13.90
2023-05-05T19:49:56.808Z,13.90
2023-05-05T19:53:40.222Z,14.00
2023-05-05T19:57:22.376Z,14.00
2023-05-05T20:01:04.286Z,14.10
2023-05-05T20:04:46.507Z,14.10
2023-05-05T20:08:28.514Z,14.20
2023-05-05T20:12:12.179Z,14.30
2023-05-05T20:15:54.123Z,14.30
2023-05-05T20:19:36.086Z,14.40
2023-05-05T20:23:17.968Z,14.40
2023-05-05T20:26:59.874Z,14.40
2023-05-05T20:30:41.806Z,14.40
2023-05-05T20:34:25.164Z,14.40
2023-05-05T20:38:07.472Z,14.30
2023-05-05T20:41:49.473Z,14.30
2023-05-05T20:45:33.906Z,14.20
2023-05-05T20:49:16.017Z,14.10
2023-05-05T20:52:58.570Z,14.00
2023-05-05T20:56:40.922Z,13.80
2023-05-05T21:00:23.033Z,13.60
2023-05-05T21:04:05.407Z,13.50
2023-05-05T21:07:47.401Z,13.40
2023-05-05T21:11:29.333Z,13.40
2023-05-05T21:15:11.640Z,13.30
2023-05-05T21:18:53.745Z,13.40
2023-05-05T21:22:35.728Z,13.40
2023-05-05T21:26:17.642Z,13.40
2023-05-05T21:29:59.525Z,13.40
2023-05-05T21:33:41.410Z,13.30
2023-05-05T21:37:23.313Z,13.20
2023-05-05T21:41:05.582Z,13.10
2023-05-05T21:44:47.564Z,13.00
2023-05-05T21:48:29.589Z,12.90
2023-05-05T21:52:11.567Z,12.90
2023-05-05T21:55:53.466Z,12.80
2023-05-05T21:59:35.447Z,12.80
2023-05-05T22:03:17.856Z,12.90
2023-05-05T22:06:59.856Z,13.00
2023-05-05T22:10:41.833Z,13.10
2023-05-05T22:14:28.166Z,13.00
2023-05-05T22:18:10.581Z,13.00
2023-05-05T22:21:52.490Z,13.00
2023-05-05T22:25:34.427Z,13.00
2023-05-05T22:29:16.381Z,13.10
2023-05-05T22:32:58.376Z,13.20
2023-05-05T22:36:40.384Z,13.30
2023-05-05T22:40:22.529Z,13.30
2023-05-05T22:44:04.540Z,13.40
2023-05-05T22:47:46.479Z,13.40
2023-05-05T22:51:29.474Z,13.50
2023-05-05T22:55:14.072Z,13.50
2023-05-05T22:58:56.452Z,13.60
2023-05-05T23:02:39.133Z,13.60
2023-05-05T23:06:21.081Z,13.60
2023-05-05T23:10:03.764Z,13.60
2023-05-05T23:13:45.966Z,13.70
2023-05-05T23:17:28.220Z,13.70
2023-05-05T23:21:10.486Z,13.70
2023-05-05T23:24:52.639Z,13.70
2023-05-05T23:28:34.548Z,13.80
2023-05-05T23:32:16.550Z,13.80
2023-05-05T23:35:58.438Z,13.80
2023-05-05T23:39:40.789Z,13.70
2023-05-05T23:43:22.708Z,13.70
2023-05-05T23:47:04.812Z,13.70
2023-05-05T23:50:46.754Z,13.70
2023-05-05T23:54:28.758Z,13.60
2023-05-05T23:58:10.640Z,13.60
